Time;durP1;ratioP1;P1;durP2;ratioP2;P2;SDS_P1;SDS_P2;PMS_P1;PMS_P2;Temp;Humidity;BMP_temperature;BMP_pressure;BME280_temperature;BME280_humidity;BME280_pressure;Samples;Min_cycle;Max_cycle;Signal;HPM_P1;HPM_P2
2024/04/11 00:00:32;;;;;;;4.63;2.17;;;;;;;15.48;81.97;101280.84;11178235;26;20489;-86
2024/04/11 00:05:56;;;;;;;4.07;2.40;;;;;;;15.54;80.84;101266.72;11178136;26;20058;-85
2024/04/11 00:11:21;;;;;;;3.88;2.25;;;;;;;15.60;81.96;101269.41;11178026;26;20320;-87
2024/04/11 00:16:51;;;;;;;3.88;2.20;;;;;;;15.59;81.77;101259.63;11177414;26;20129;-85
2024/04/11 00:22:15;;;;;;;;;;;;;;;15.64;81.88;101259.63;11177614;26;20331;-83
2024/04/11 00:27:40;;;;;;;3.30;2.40;;;;;;;15.53;86.11;101256.94;11177367;26;19994;-85
2024/04/11 00:33:10;;;;;;;3.67;2.42;;;;;;;15.58;89.54;101257.84;11177664;26;19996;-84
2024/04/11 00:38:36;;;;;;;4.00;2.47;;;;;;;15.59;89.67;101256.97;11176820;26;19999;-84
2024/04/11 00:44:02;;;;;;;2.47;2.28;;;;;;;15.63;90.83;101247.19;11176776;26;20053;-85
2024/04/11 00:49:29;;;;;;;4.75;2.80;;;;;;;15.51;91.24;101256.91;11201436;26;20008;-87
2024/04/11 00:54:54;;;;;;;5.15;2.92;;;;;;;15.42;92.07;101253.34;11225815;26;19999;-84
2024/04/11 01:00:26;;;;;;;3.38;2.78;;;;;;;15.52;94.62;101241.81;11200125;26;19999;-85
2024/04/11 01:05:53;;;;;;;4.90;2.60;;;;;;;15.42;97.22;101245.34;11176118;26;20737;-85
2024/04/11 01:11:18;;;;;;;4.82;2.85;;;;;;;15.41;97.63;101243.56;11098404;26;20008;-84
2024/04/11 01:16:42;;;;;;;5.72;2.50;;;;;;;15.41;98.46;101244.47;11202487;26;20003;-83
2024/04/11 01:22:11;;;;;;;3.60;2.40;;;;;;;15.54;99.33;101238.34;11200935;26;20018;-86
2024/04/11 01:27:39;;;;;;;3.80;2.60;;;;;;;15.46;100.00;101229.41;11206011;26;20522;-84
2024/04/11 01:33:09;;;;;;;6.63;3.05;;;;;;;15.46;100.00;101237.38;11183161;26;20000;-85
2024/04/11 01:38:33;;;;;;;4.28;2.47;;;;;;;15.43;100.00;101233.81;11207110;26;20013;-86
2024/04/11 01:44:02;;;;;;;2.97;2.40;;;;;;;15.19;100.00;101229.28;11206315;26;20088;-85
2024/04/11 01:49:30;;;;;;;3.88;2.45;;;;;;;15.36;100.00;101226.72;11223143;26;20342;-85
2024/04/11 01:54:55;;;;;;;;;;;;;;;15.46;100.00;101232.06;11256079;26;20063;-85
2024/04/11 02:00:26;;;;;;;4.15;2.20;;;;;;;15.37;100.00;101228.47;11255715;26;19936;-84
2024/04/11 02:05:50;;;;;;;3.97;2.60;;;;;;;15.14;100.00;101231.06;11279986;26;20013;-85
2024/04/11 02:11:14;;;;;;;4.80;2.75;;;;;;;15.13;100.00;101235.47;11281021;26;20177;-85
2024/04/11 02:16:41;;;;;;;2.88;2.65;;;;;;;15.18;100.00;101226.63;11234773;26;20057;-85
2024/04/11 02:22:08;;;;;;;5.47;3.30;;;;;;;15.18;100.00;101234.59;11181850;26;20012;-85
2024/04/11 02:27:34;;;;;;;4.28;3.05;;;;;;;15.12;100.00;101236.34;11205282;26;20024;-83
2024/04/11 02:33:01;;;;;;;3.70;2.53;;;;;;;14.88;100.00;101228.25;11205250;26;20022;-84
2024/04/11 02:38:26;;;;;;;4.90;2.60;;;;;;;14.72;100.00;101221.97;11203490;26;20242;-85
2024/04/11 02:43:50;;;;;;;5.60;3.10;;;;;;;14.73;100.00;101230.81;11205426;26;20011;-86
2024/04/11 02:49:17;;;;;;;6.30;3.05;;;;;;;14.72;100.00;101231.69;11240173;26;20335;-84
2024/04/11 02:54:42;;;;;;;4.85;3.00;;;;;;;14.60;100.00;101228.97;11204674;26;19999;-86
2024/04/11 03:00:09;;;;;;;2.97;2.63;;;;;;;14.59;100.00;101228.06;11179929;26;20397;-85
2024/04/11 03:05:39;;;;;;;5.07;2.95;;;;;;;14.57;100.00;101228.97;11204300;26;20015;-86
2024/04/11 03:11:03;;;;;;;4.72;2.78;;;;;;;14.60;100.00;101232.50;11179378;26;19996;-85
2024/04/11 03:16:30;;;;;;;4.38;2.80;;;;;;;14.72;100.00;101232.59;11248020;26;20006;-85
2024/04/11 03:21:59;;;;;;;4.78;3.15;;;;;;;14.63;100.00;101239.63;11303462;26;20030;-86
2024/04/11 03:27:23;;;;;;;3.15;2.85;;;;;;;14.53;100.00;101243.09;11253715;26;20626;-86
2024/04/11 03:32:48;;;;;;;5.45;2.92;;;;;;;14.56;100.00;101251.09;11277864;26;20002;-86
2024/04/11 03:38:16;;;;;;;4.85;2.88;;;;;;;14.54;100.00;101255.50;11252708;26;20504;-84
2024/04/11 03:43:41;;;;;;;4.10;2.27;;;;;;;14.55;100.00;101249.31;11252192;26;20014;-86
2024/04/11 03:49:06;;;;;;;5.22;2.92;;;;;;;14.54;100.00;101253.72;11229082;26;20265;-85
2024/04/11 03:54:33;;;;;;;6.90;3.47;;;;;;;14.51;100.00;101260.78;11176987;26;20444;-85
2024/04/11 03:59:57;;;;;;;3.95;2.60;;;;;;;14.55;100.00;101244.00;11202367;26;20018;-85
2024/04/11 04:05:23;;;;;;;5.43;2.63;;;;;;;14.60;100.00;101255.53;11178529;26;20074;-85
2024/04/11 04:10:51;;;;;;;5.03;2.55;;;;;;;14.68;100.00;101264.47;11177793;26;20004;-84
2024/04/11 04:16:17;;;;;;;5.20;2.75;;;;;;;14.94;100.00;101276.16;11202131;26;20000;-84
2024/04/11 04:21:44;;;;;;;7.60;2.22;;;;;;;15.26;100.00;101273.66;11176812;26;20014;-85
2024/04/11 04:27:11;;;;;;;5.25;2.20;;;;;;;15.67;100.00;101272.97;11177910;26;20000;-83
2024/04/11 04:32:38;;;;;;;2.63;2.33;;;;;;;16.04;100.00;101274.81;11202330;26;20452;-84
2024/04/11 04:38:02;;;;;;;4.18;2.22;;;;;;;16.49;100.00;101279.28;11176900;26;19995;-86
2024/04/11 04:43:30;;;;;;;6.80;3.33;;;;;;;17.11;100.00;101281.00;11202433;26;20003;-85
2024/04/11 04:48:55;;;;;;;5.70;3.20;;;;;;;17.81;98.23;101283.41;11177300;26;20011;-85
2024/04/11 04:54:20;;;;;;;4.60;2.03;;;;;;;18.40;94.63;101274.06;11176918;26;20028;-86
2024/04/11 04:59:46;;;;;;;3.70;2.42;;;;;;;19.02;92.14;101274.41;11175944;26;20003;-87
2024/04/11 05:05:12;;;;;;;2.85;1.80;;;;;;;19.64;87.45;101269.22;11177462;26;20074;-86
2024/04/11 05:10:41;;;;;;;2.20;1.70;;;;;;;20.26;82.90;101271.88;11200578;26;20607;-88
2024/04/11 05:16:18;;;;;;;5.23;1.53;;;;;;;20.91;77.27;101268.97;11200604;26;20008;-90
2024/04/11 05:21:42;;;;;;;3.20;1.52;;;;;;;21.38;62.87;101268.09;11174640;26;20003;-87
2024/04/11 05:27:08;;;;;;;8.38;2.13;;;;;;;21.81;57.12;101268.91;11200580;26;20489;-87
2024/04/11 05:32:35;;;;;;;4.72;1.70;;;;;;;22.28;52.19;101264.25;11189219;26;20011;-89
2024/04/11 05:37:59;;;;;;;3.40;2.17;;;;;;;22.77;49.69;101269.31;11225555;26;20030;-90
2024/04/11 05:43:23;;;;;;;3.90;1.77;;;;;;;23.10;44.72;101272.91;11176081;26;20031;-92
2024/04/11 05:48:52;;;;;;;2.30;1.23;;;;;;;23.60;44.13;101284.06;11203969;26;20323;-91
2024/04/11 05:54:17;;;;;;;4.78;1.70;;;;;;;23.90;41.54;101284.94;11198322;26;20011;-90
2024/04/11 05:59:45;;;;;;;4.07;1.55;;;;;;;24.11;39.85;101277.06;11174140;26;19996;-90
2024/04/11 06:05:12;;;;;;;2.03;1.30;;;;;;;24.47;38.88;101280.41;11198518;26;20003;-91
2024/04/11 06:10:38;;;;;;;3.88;1.63;;;;;;;24.68;38.69;101283.31;11199773;26;20000;-92
2024/04/11 06:16:04;;;;;;;7.50;1.70;;;;;;;25.09;38.31;101292.69;11180756;26;19999;-91
2024/04/11 06:21:36;;;;;;;3.75;1.42;;;;;;;25.63;37.62;101287.09;11181404;26;20029;-92
2024/04/11 06:27:01;;;;;;;2.95;1.77;;;;;;;26.04;36.88;101289.06;11180529;26;20014;-89
2024/04/11 06:32:31;;;;;;;4.35;1.70;;;;;;;26.35;36.53;101296.84;11180585;26;20003;-90
2024/04/11 06:37:59;;;;;;;1.75;1.40;;;;;;;26.66;35.76;101288.31;11204629;26;20000;-91
2024/04/11 06:43:25;;;;;;;3.58;1.67;;;;;;;26.91;35.26;101293.63;11206296;26;19999;-92
2024/04/11 06:48:49;;;;;;;4.00;1.40;;;;;;;27.31;34.89;101295.41;11197163;26;20003;-91
2024/04/11 06:54:19;;;;;;;2.83;1.63;;;;;;;27.67;33.98;101306.47;11179656;26;20004;-91
2024/04/11 06:59:44;;;;;;;3.53;1.30;;;;;;;27.79;33.24;101307.72;11204128;26;20011;-92
2024/04/11 07:05:12;;;;;;;5.07;1.60;;;;;;;27.97;33.30;101309.53;11180365;26;20053;-91
2024/04/11 07:10:46;;;;;;;4.07;1.50;;;;;;;28.49;33.20;101308.78;11178770;26;20050;-91
2024/04/11 07:16:16;;;;;;;5.00;1.50;;;;;;;28.83;32.31;101326.16;11203607;26;20354;-90
2024/04/11 07:21:43;;;;;;;3.38;1.85;;;;;;;28.92;32.06;101317.53;11202984;26;20007;-92
2024/04/11 07:27:12;;;;;;;4.60;1.67;;;;;;;29.03;31.59;101331.44;11203624;26;20034;-92
2024/04/11 07:32:37;;;;;;;3.30;1.40;;;;;;;29.25;31.03;101333.91;11181279;26;20018;-91
2024/04/11 07:38:02;;;;;;;4.10;1.60;;;;;;;29.42;30.61;101344.81;11180999;26;20004;-95
2024/04/11 07:43:31;;;;;;;3.22;1.90;;;;;;;29.26;30.65;101344.72;11208160;26;19999;-96
2024/04/11 07:48:56;;;;;;;5.07;1.63;;;;;;;29.41;30.44;101353.94;11230471;26;20010;-94
2024/04/11 07:54:26;;;;;;;5.05;3.30;;;;;;;29.76;29.91;101357.47;11204736;26;19999;-95
2024/04/11 07:59:55;;;;;;;2.63;1.80;;;;;;;29.93;29.63;101367.50;11187037;26;20014;-94
2024/04/11 08:05:22;;;;;;;4.05;1.70;;;;;;;29.74;29.29;101373.00;11191675;26;20090;-93
2024/04/11 08:11:02;;;;;;;3.33;2.80;;;;;;;29.91;29.12;101374.81;11203652;26;20000;-92
2024/04/11 08:16:29;;;;;;;3.60;1.70;;;;;;;30.05;29.62;101375.88;11209399;26;20230;-95
2024/04/11 08:21:54;;;;;;;2.17;1.67;;;;;;;30.27;29.54;101391.84;11215361;26;20003;-90
2024/04/11 08:27:20;;;;;;;3.55;1.65;;;;;;;30.44;29.94;101396.38;11198541;26;20078;-95
2024/04/11 08:32:50;;;;;;;4.22;1.48;;;;;;;30.60;30.04;101401.84;11249686;26;20558;-91
2024/04/11 08:38:15;;;;;;;2.47;1.60;;;;;;;30.68;30.16;101400.44;11209015;26;20007;-91
2024/04/11 08:43:44;;;;;;;4.90;2.63;;;;;;;30.83;30.59;101394.09;11224697;26;20073;-96
2024/04/11 08:49:13;;;;;;;3.10;1.55;;;;;;;30.82;30.89;101400.53;11170809;26;20000;-87
2024/04/11 08:54:44;;;;;;;3.45;1.80;;;;;;;31.26;30.78;101399.75;11200480;26;20418;-91
2024/04/11 09:00:12;;;;;;;4.15;1.95;;;;;;;31.47;31.03;101406.63;11202621;26;20007;-93
2024/04/11 09:05:39;;;;;;;5.28;2.65;;;;;;;31.44;31.38;101404.06;11200581;26;19999;-90
2024/04/11 09:11:04;;;;;;;7.43;2.03;;;;;;;31.55;31.11;101409.78;11200838;26;19996;-89
2024/04/11 09:16:33;;;;;;;4.18;1.90;;;;;;;31.42;31.52;101410.63;11200135;26;20440;-90
2024/04/11 09:22:00;;;;;;;2.28;1.77;;;;;;;31.68;31.16;101412.66;11204091;26;20007;-87
2024/04/11 09:27:25;;;;;;;6.10;1.73;;;;;;;31.87;30.77;101407.81;11196788;26;19999;-84
2024/04/11 09:32:54;;;;;;;6.32;1.73;;;;;;;32.01;31.03;101410.53;11174134;26;20398;-88
2024/04/11 09:38:26;;;;;;;4.97;2.75;;;;;;;32.36;30.80;101421.09;11174226;26;20081;-90
2024/04/11 09:43:55;;;;;;;4.53;2.40;;;;;;;32.45;30.68;101421.38;11189868;26;20000;-89
2024/04/11 09:49:23;;;;;;;7.80;3.20;;;;;;;32.19;31.26;101411.25;11266089;26;20003;-90
2024/04/11 09:54:54;;;;;;;7.38;3.90;;;;;;;32.19;31.77;101416.72;11205452;26;20018;-90
2024/04/11 10:00:48;;;;;;;6.57;2.58;;;;;;;32.23;32.05;101414.69;11206247;26;20096;-89
2024/04/11 10:06:06;;;;;;;7.47;3.42;;;;;;;32.36;32.48;101430.16;11204920;26;20049;-88
2024/04/11 10:11:35;;;;;;;6.50;3.65;;;;;;;32.54;31.82;101430.84;11205705;26;20084;-93
2024/04/11 10:17:05;;;;;;;8.88;4.85;;;;;;;32.58;31.51;101432.38;11208383;26;20003;-94
2024/04/11 10:22:29;;;;;;;5.55;4.28;;;;;;;32.56;31.27;101436.22;11280703;26;20057;-93
2024/04/11 10:27:59;;;;;;;9.80;2.05;;;;;;;32.34;31.26;101436.72;11279540;26;20003;-92
2024/04/11 10:33:29;;;;;;;3.33;1.55;;;;;;;32.32;31.08;101434.09;11275270;26;19999;-95
2024/04/11 10:38:57;;;;;;;6.38;1.80;;;;;;;31.92;31.59;101432.09;11274850;26;20017;-92
2024/04/11 10:44:26;;;;;;;7.07;2.47;;;;;;;31.56;32.19;101427.03;11278178;26;20011;-93
2024/04/11 10:49:55;;;;;;;4.40;1.90;;;;;;;31.46;32.48;101428.56;11212697;26;19999;-94
2024/04/11 10:55:28;;;;;;;4.65;1.90;;;;;;;31.17;32.76;101423.03;11204281;26;20024;-89
2024/04/11 11:06:37;;;;;;;8.75;2.30;;;;;;;30.68;33.35;101422.25;11172274;26;20000;-92
2024/04/11 11:12:02;;;;;;;5.60;2.20;;;;;;;30.26;34.58;101420.06;11175796;26;20014;-93
2024/04/11 11:17:31;;;;;;;6.80;2.35;;;;;;;30.04;35.29;101419.53;11185239;26;20003;-94
2024/04/11 11:22:58;;;;;;;7.78;2.00;;;;;;;29.72;35.83;101423.97;11196473;26;20007;-93
2024/04/11 11:28:24;;;;;;;7.90;1.75;;;;;;;29.59;36.00;101423.72;11194017;26;20030;-92
2024/04/11 11:33:51;;;;;;;5.03;2.00;;;;;;;29.54;36.55;101441.25;11219770;26;20006;-92
2024/04/11 11:39:17;;;;;;;4.85;2.22;;;;;;;29.15;36.14;101436.88;11276260;26;19995;-92
2024/04/11 11:45:05;;;;;;;6.70;2.20;;;;;;;29.02;37.34;101438.44;11246595;26;20013;-94
2024/04/11 11:50:38;;;;;;;8.93;2.85;;;;;;;29.14;37.40;101426.97;11233457;26;20016;-92
2024/04/11 11:56:06;;;;;;;6.07;2.47;;;;;;;29.27;37.21;101428.09;11194786;26;20497;-92
2024/04/11 12:01:37;;;;;;;10.40;3.33;;;;;;;29.27;37.06;101429.94;11202265;26;20019;-93
2024/04/11 12:07:05;;;;;;;9.52;2.60;;;;;;;28.96;37.88;101418.84;11201892;26;20015;-92
2024/04/11 12:12:30;;;;;;;11.35;2.88;;;;;;;28.73;38.43;101399.09;11201711;26;20007;-94
2024/04/11 12:17:54;;;;;;;23.42;12.68;;;;;;;28.67;39.63;101398.53;11197359;26;20016;-93
2024/04/11 12:23:23;;;;;;;14.45;6.13;;;;;;;28.22;41.62;101401.66;11202252;26;20016;-93
2024/04/11 12:28:50;;;;;;;5.65;2.50;;;;;;;27.85;42.48;101399.72;11201571;26;20028;-93
2024/04/11 12:34:14;;;;;;;6.97;2.88;;;;;;;27.48;43.16;101393.22;11202167;26;20003;-94
2024/04/11 12:39:47;;;;;;;9.18;2.90;;;;;;;27.21;44.72;101389.00;11200896;26;20000;-94
2024/04/11 12:45:18;;;;;;;10.30;3.13;;;;;;;27.12;45.36;101382.13;11239594;26;20775;-93
2024/04/11 12:50:43;;;;;;;8.77;3.47;;;;;;;27.12;45.51;101383.94;11240669;26;20018;-93
2024/04/11 12:56:11;;;;;;;9.52;2.90;;;;;;;26.83;44.93;101377.94;11200920;26;20011;-93
2024/04/11 13:01:39;;;;;;;11.00;2.88;;;;;;;26.68;44.74;101392.09;11175785;26;20012;-92
2024/04/11 13:07:10;;;;;;;6.65;2.55;;;;;;;26.56;44.83;101387.19;11200004;26;20077;-93
2024/04/11 13:12:43;;;;;;;8.40;3.10;;;;;;;26.47;44.44;101385.72;11200586;26;20000;-92
2024/04/11 13:18:11;;;;;;;7.55;3.03;;;;;;;26.26;44.77;101380.28;11242698;26;20488;-93
2024/04/11 13:23:42;;;;;;;9.70;3.58;;;;;;;26.14;44.55;101376.19;11273903;26;20011;-93
2024/04/11 13:29:10;;;;;;;10.63;3.33;;;;;;;26.09;44.75;101379.09;11273999;26;20103;-91
2024/04/11 13:34:59;;;;;;;6.55;3.63;;;;;;;26.07;43.57;101362.03;11249451;26;19999;-93
2024/04/11 13:46:09;;;;;;;9.15;2.78;;;;;;;26.17;42.40;101382.38;10977522;26;20013;-92
2024/04/11 13:51:35;;;;;;;10.52;3.03;;;;;;;26.20;42.47;101379.53;10930291;27;20041;-93
2024/04/11 13:57:09;;;;;;;10.82;2.80;;;;;;;26.02;43.21;101385.69;10929547;27;20017;-92
2024/04/11 14:02:58;;;;;;;11.30;3.40;;;;;;;25.88;44.34;101389.84;10930611;27;20101;-93
2024/04/11 14:08:23;;;;;;;11.07;2.95;;;;;;;25.73;45.52;101380.50;10953617;27;20009;-94
2024/04/11 14:13:53;;;;;;;6.05;2.65;;;;;;;25.58;46.52;101373.84;10930037;27;20014;-93
2024/04/11 14:19:35;;;;;;;6.22;2.85;;;;;;;25.55;47.91;101367.59;10961099;26;20422;-92
2024/04/11 14:25:26;;;;;;;10.27;2.67;;;;;;;25.47;48.25;101369.72;11197245;26;20015;-90
2024/04/11 14:31:08;;;;;;;7.97;2.30;;;;;;;25.63;46.17;101374.53;11198009;26;20542;-91
2024/04/11 14:37:05;;;;;;;11.38;3.20;;;;;;;25.79;46.58;101380.28;11204998;26;20339;-91
2024/04/11 14:42:25;;;;;;;10.75;2.88;;;;;;;25.74;47.10;101391.25;11180447;26;19999;-93
2024/04/11 14:47:50;;;;;;;10.32;3.80;;;;;;;25.69;48.24;101382.41;11227955;26;20018;-92
2024/04/11 14:53:22;;;;;;;11.65;3.38;;;;;;;25.58;49.31;101381.94;11226110;26;20000;-93
2024/04/11 14:58:47;;;;;;;11.25;2.75;;;;;;;25.29;50.32;101391.06;11208395;26;20072;-93
2024/04/11 15:04:20;;;;;;;8.48;2.80;;;;;;;24.88;52.63;101381.63;11207074;26;20077;-91
2024/04/11 15:09:56;;;;;;;9.32;3.20;;;;;;;24.51;56.91;101375.69;11217449;26;20010;-87
2024/04/11 15:15:24;;;;;;;11.07;3.97;;;;;;;24.18;60.00;101378.47;11222505;26;20004;-88
2024/04/11 15:20:50;;;;;;;12.73;3.40;;;;;;;23.96;63.02;101380.03;11213664;26;20015;-83
2024/04/11 15:26:23;;;;;;;11.50;3.00;;;;;;;23.83;64.53;101381.31;11264653;26;20428;-82
2024/04/11 15:31:59;;;;;;;14.60;3.80;;;;;;;23.61;64.98;101389.16;11245512;26;20026;-81
2024/04/11 15:37:43;;;;;;;8.45;3.40;;;;;;;23.43;64.35;101387.81;11229923;26;20042;-85
2024/04/11 15:43:21;;;;;;;14.65;3.33;;;;;;;23.34;63.84;101396.16;11183036;26;20022;-84
2024/04/11 15:48:47;;;;;;;;;;;;;;;23.24;63.75;101393.75;11219186;26;21628;-91
2024/04/11 15:54:37;;;;;;;15.35;3.72;;;;;;;23.07;63.92;101390.63;11215043;26;20722;-83
2024/04/11 16:00:10;;;;;;;11.98;3.40;;;;;;;23.03;65.51;101408.69;11196808;26;20435;-91
2024/04/11 16:05:34;;;;;;;15.50;3.60;;;;;;;22.81;69.10;101405.63;11176552;26;19999;-85
2024/04/11 16:11:00;;;;;;;16.08;4.30;;;;;;;22.65;71.68;101409.56;11212717;26;20020;-80
2024/04/11 16:16:30;;;;;;;13.27;4.60;;;;;;;22.57;72.67;101414.25;11233132;26;19999;-86
2024/04/11 16:21:57;;;;;;;6.40;3.30;;;;;;;22.41;73.94;101424.47;11230194;26;20125;-91
2024/04/11 16:27:24;;;;;;;17.02;5.05;;;;;;;22.35;74.53;101421.94;11262979;26;20003;-91
2024/04/11 16:32:51;;;;;;;11.02;3.40;;;;;;;22.27;74.18;101416.72;11182209;26;19999;-90
2024/04/11 16:38:23;;;;;;;9.38;3.80;;;;;;;22.18;74.85;101413.38;11238291;26;20081;-91
2024/04/11 16:43:51;;;;;;;10.25;3.50;;;;;;;21.95;78.37;101412.91;11196616;26;20018;-92
2024/04/11 16:49:26;;;;;;;12.57;4.10;;;;;;;21.83;79.96;101414.94;11247051;26;20523;-90
2024/04/11 16:55:00;;;;;;;14.38;3.63;;;;;;;21.66;83.82;101418.91;11291037;26;20014;-86
2024/04/11 17:00:30;;;;;;;16.70;3.95;;;;;;;21.56;87.31;101418.16;11283668;26;20513;-86
2024/04/11 17:06:10;;;;;;;12.05;4.00;;;;;;;21.28;91.96;101417.78;11349229;26;20012;-91
2024/04/11 17:11:35;;;;;;;12.88;3.90;;;;;;;21.05;95.57;101425.34;11353414;26;20009;-94
2024/04/11 17:17:28;;;;;;;15.75;5.25;;;;;;;20.81;98.47;101425.72;11278987;26;20459;-91
2024/04/11 17:23:05;;;;;;;15.63;5.30;;;;;;;20.53;99.04;101428.84;11277612;26;20012;-95
2024/04/11 17:28:39;;;;;;;13.35;5.10;;;;;;;20.28;100.00;101443.47;11279533;26;20017;-94
2024/04/11 17:34:06;;;;;;;10.77;5.05;;;;;;;20.30;100.00;101439.84;11308661;26;20075;-84
2024/04/11 17:39:43;;;;;;;10.57;4.13;;;;;;;20.28;100.00;101452.38;11279145;26;20021;-88
2024/04/11 17:45:14;;;;;;;15.23;4.50;;;;;;;20.21;100.00;101444.47;11309197;26;19998;-88
2024/04/11 17:50:39;;;;;;;13.95;4.22;;;;;;;20.12;100.00;101458.88;11245840;26;20568;-89
2024/04/11 17:56:09;;;;;;;13.60;4.55;;;;;;;20.09;100.00;101460.69;11259094;26;19999;-86
2024/04/11 18:01:36;;;;;;;18.75;5.85;;;;;;;19.99;100.00;101469.75;11262496;26;20409;-95
2024/04/11 18:07:02;;;;;;;14.95;5.70;;;;;;;19.99;100.00;101477.78;11269062;26;20365;-89
2024/04/11 18:12:30;;;;;;;12.80;4.10;;;;;;;20.02;100.00;101477.78;11270026;26;20463;-94
2024/04/11 18:17:57;;;;;;;13.60;4.60;;;;;;;20.00;100.00;101483.16;11342728;26;19997;-91
2024/04/11 18:23:24;;;;;;;12.23;4.60;;;;;;;19.92;100.00;101490.38;11337130;26;20001;-93
2024/04/11 18:28:56;;;;;;;13.20;4.90;;;;;;;19.87;100.00;101495.81;11360269;26;20006;-94
2024/04/11 18:34:20;;;;;;;12.48;4.65;;;;;;;19.82;100.00;101494.94;11348672;26;20017;-95
2024/04/11 18:40:00;;;;;;;12.32;4.70;;;;;;;19.73;100.00;101500.41;11349832;26;19998;-94
2024/04/11 18:45:33;;;;;;;14.27;4.35;;;;;;;19.55;100.00;101497.91;11380225;26;20034;-93
2024/04/11 18:51:03;;;;;;;15.35;5.20;;;;;;;19.45;100.00;101507.78;11337964;26;20012;-95
2024/04/11 18:56:33;;;;;;;13.43;4.93;;;;;;;19.35;100.00;101508.78;11367309;26;19998;-96
2024/04/11 19:02:01;;;;;;;11.90;4.55;;;;;;;19.31;100.00;101512.38;11305892;26;20015;-95
2024/04/11 19:07:34;;;;;;;17.73;5.23;;;;;;;19.26;100.00;101518.66;11282177;26;19998;-95
2024/04/11 19:13:02;;;;;;;14.07;4.88;;;;;;;19.14;100.00;101518.75;11276177;26;20002;-95
2024/04/11 19:18:33;;;;;;;16.67;5.50;;;;;;;18.91;100.00;101517.13;11325643;26;20446;-96
2024/04/11 19:24:06;;;;;;;12.05;4.78;;;;;;;18.88;100.00;101522.50;11337784;26;20052;-96
2024/04/11 19:29:39;;;;;;;13.23;4.63;;;;;;;18.88;100.00;101509.13;11369661;26;20012;-94
2024/04/11 19:35:07;;;;;;;16.42;4.53;;;;;;;18.93;100.00;101512.66;11399568;26;20002;-96
2024/04/11 19:40:33;;;;;;;13.80;4.78;;;;;;;18.89;100.00;101516.25;11327256;26;20009;-96
2024/04/11 19:46:06;;;;;;;12.00;5.20;;;;;;;18.75;100.00;101518.13;11348661;26;20002;-96
2024/04/11 19:51:36;;;;;;;13.52;6.13;;;;;;;18.49;100.00;101522.69;11343554;26;19997;-95
2024/04/11 19:57:05;;;;;;;18.88;7.60;;;;;;;18.48;100.00;101524.47;11376416;26;20051;-95
2024/04/11 20:02:35;;;;;;;12.93;4.78;;;;;;;18.49;100.00;101528.94;11343633;26;20077;-96
2024/04/11 20:08:04;;;;;;;14.00;5.35;;;;;;;18.38;100.00;101516.50;11371673;26;20001;-93
2024/04/11 20:19:24;;;;;;;12.50;5.15;;;;;;;18.09;100.00;101525.50;11098249;26;20014;-93
2024/04/11 20:24:57;;;;;;;15.77;5.78;;;;;;;18.00;100.00;101517.50;11370149;26;20040;-95
2024/04/11 20:30:21;;;;;;;11.55;5.50;;;;;;;17.93;100.00;101521.09;11370345;26;20024;-93
2024/04/11 20:35:48;;;;;;;14.63;5.30;;;;;;;17.84;100.00;101532.72;11386759;26;19998;-91
2024/04/11 20:41:29;;;;;;;12.57;5.25;;;;;;;17.75;100.00;101518.47;11387923;26;20402;-95
2024/04/11 21:38:11;;;;;;;15.73;5.70;;;;;;;17.11;100.00;101537.13;11355685;26;19998;-93
2024/04/11 21:43:35;;;;;;;11.82;4.93;;;;;;;17.03;100.00;101536.22;11332637;26;20012;-92
2024/04/11 21:49:04;;;;;;;9.90;4.88;;;;;;;16.93;100.00;101537.13;11328411;26;20045;-92
2024/04/11 21:54:29;;;;;;;19.77;5.88;;;;;;;16.84;100.00;101526.41;11361504;26;20461;-92
2024/04/11 21:59:55;;;;;;;11.75;5.13;;;;;;;16.77;100.00;101525.50;11315727;26;20758;-90
2024/04/11 22:05:23;;;;;;;13.13;5.32;;;;;;;16.74;100.00;101520.16;11330316;26;20010;-93
2024/04/11 22:10:48;;;;;;;11.30;5.53;;;;;;;16.60;100.00;101519.25;11374080;26;19998;-93
2024/04/11 22:16:21;;;;;;;15.00;5.35;;;;;;;16.53;100.00;101507.66;11361258;26;20078;-92
2024/04/11 22:21:50;;;;;;;12.88;5.47;;;;;;;16.38;100.00;101509.34;11348251;26;20012;-93
2024/04/11 22:27:15;;;;;;;14.13;5.15;;;;;;;16.20;100.00;101504.84;11332114;26;19997;-92
2024/04/11 22:32:40;;;;;;;10.52;5.20;;;;;;;16.22;100.00;101503.94;11358051;26;20438;-93
2024/04/11 22:38:08;;;;;;;13.02;5.78;;;;;;;16.29;100.00;101510.19;11330513;26;20029;-91
2024/04/11 22:43:37;;;;;;;16.90;6.43;;;;;;;16.14;100.00;101494.16;11365745;26;20009;-92
2024/04/11 22:49:11;;;;;;;13.45;5.45;;;;;;;16.03;100.00;101495.88;11380771;26;19993;-91
2024/04/11 22:54:40;;;;;;;14.90;6.18;;;;;;;16.01;100.00;101498.53;11362824;26;20020;-91
2024/04/11 23:00:27;;;;;;;;;;;;;;;16.05;100.00;101489.66;11358930;26;20026;-91
2024/04/11 23:05:55;;;;;;;14.35;6.00;;;;;;;15.90;100.00;101489.59;11369087;26;19931;-94
2024/04/11 23:11:23;;;;;;;13.20;6.03;;;;;;;15.71;100.00;101493.03;11306117;26;20002;-92
2024/04/11 23:16:48;;;;;;;12.63;6.43;;;;;;;15.73;100.00;101470.88;11314242;26;20012;-91
2024/04/11 23:22:25;;;;;;;12.38;6.53;;;;;;;15.81;100.00;101466.47;11329693;26;20001;-91
2024/04/11 23:27:53;;;;;;;14.98;6.63;;;;;;;15.78;100.00;101461.13;11309990;26;20013;-93
2024/04/11 23:33:21;;;;;;;16.90;6.95;;;;;;;15.67;100.00;101469.94;11386318;26;20030;-92
2024/04/11 23:38:47;;;;;;;20.13;7.33;;;;;;;15.62;100.00;101459.25;11333823;26;20001;-91
2024/04/11 23:44:26;;;;;;;16.77;6.72;;;;;;;15.50;100.00;101461.78;11357355;26;19997;-91
2024/04/11 23:49:50;;;;;;;13.65;6.50;;;;;;;15.32;100.00;101459.00;11350194;26;20006;-90
2024/04/11 23:55:22;;;;;;;12.85;6.60;;;;;;;15.34;100.00;101452.84;11374701;26;20006;-89
